Natercia, Brazil
Current Conditions -  °F | °C
As of 8:00 PM on Sunday 23 Nov 2014 (Local Time) from SBGW Reporting Station
Broken Clouds Broken Clouds  
Wind Chill: 75°   Ceiling: 2000
Heat Index: 75°   Visibility: 6mi
Dew Point: 66°   Wind: 0mph
Humidity: 73%   Direction: NA
Pressure: 29.97"   Gusts: NA
Location:  22.12°S, 45.51°W
Report Text: SBGW 232200Z 00000KT 9999 BKN020 BKN080 24/19 Q1015
Loading
Personal Weather Stations






























Interactive Weather Map New forecast layout! Learn more

10-Day Weather Forecast

Advertisements
Track Severe Weather on mobile